Terminal Aerodrome Forecast
Issued by NWS

Current Version | Previous Version | Graphics & Text | Print | Product List | Glossary On
Versions: 1 2 3 4 5 6 7 8 9 10 11 12 13
000
FTUS41 KPBZ 250520
TAFMGW
TAF
KMGW 250520Z 2506/2606 VRB03KT P6SM SCT150
     FM250800 07005KT P6SM BKN080
     FM252000 09008KT 3SM -SHRA OVC025
     FM260100 VRB05KT 6SM -RA OVC040=

USA.gov is the U.S. government's official web portal to all federal, state and local government web resources and services.